Aviation Digital Data Service (ADDS)

Output produced by METARs form (1447 UTC 11 December 2018)
found at http://www.aviationweather.gov/metar/data/
 
METAR text: EPSC 111430Z 31007KT 9999 -SHRA FEW005 SCT006 BKN008TCU 03/02 Q1013
Conditions at: EPSC (SZCZECIN/GOLENIO, PL) observed 1430 UTC 11 December 2018
Temperature: 3.0°C (37°F)
Dewpoint: 2.0°C (36°F) [RH = 93%]
Pressure (altimeter): 29.91 inches Hg (1013.0 mb)
Winds: from the NW (310 degrees) at 8 MPH (7 knots; 3.6 m/s)
Visibility: 6 or more miles (10+ km)
Ceiling: 800 feet AGL
Clouds: few clouds at 500 feet AGL
scattered clouds at 600 feet AGL
broken clouds at 800 feet AGL
Weather: -SHRA  (light rain showers)

METAR text: EPSC 111400Z 31009KT 9999 -SHRA FEW006 SCT007 BKN010CB 03/02 Q1013
Conditions at: EPSC (SZCZECIN/GOLENIO, PL) observed 1400 UTC 11 December 2018
Temperature: 3.0°C (37°F)
Dewpoint: 2.0°C (36°F) [RH = 93%]
Pressure (altimeter): 29.91 inches Hg (1013.0 mb)
Winds: from the NW (310 degrees) at 10 MPH (9 knots; 4.6 m/s)
Visibility: 6 or more miles (10+ km)
Ceiling: 1000 feet AGL
Clouds: few clouds at 600 feet AGL
scattered clouds at 700 feet AGL
broken clouds at 1000 feet AGL
Weather: -SHRA  (light rain showers)

Forecast for: EPSC (SZCZECIN/GOLENIO, PL)
Text: TAF EPSC 111130Z 1112/1212 33008KT 9999 BKN015
Forecast period: 1200 UTC 11 December 2018 to 0000 UTC 12 December 2018
Forecast type: FROM: standard forecast or significant change
Winds: from the NNW (330 degrees) at 9 MPH (8 knots; 4.1 m/s)
Visibility: 6 or more miles 10+ km)
Ceiling: 1500 feet AGL
Clouds: broken clouds at 1500 feet AGL
Weather: no significant weather forecast for this period
Text: TEMPO 1112/1124 4000 SHRA BKN007 BKN015CB
Forecast period: 1200 UTC 11 December 2018 to 0000 UTC 12 December 2018
Forecast type: TEMPORARY: The following changes expected for less than half the time period
Visibility: 2.49 miles (4.01 km)
Ceiling: 700 feet AGL
Clouds: broken clouds at 700 feet AGL
broken clouds at 1500 feet AGL
Weather: SHRA  (rain showers)
Text: BECMG 1200/1202 3000 BR BKN005
Forecast period: 0000 to 1200 UTC 12 December 2018
Forecast type: BECOMING: Conditions expected to become as follows by 0200 UTC 12 December 2018
Winds: from the NNW (330 degrees) at 9 MPH (8 knots; 4.1 m/s)
Visibility: 1.86 miles (2.99 km)
Ceiling: 500 feet AGL
Clouds: broken clouds at 500 feet AGL
Weather: BR  (mist)
Text: TEMPO 1202/1210 0400 FG BKN001
Forecast period: 0200 to 1000 UTC 12 December 2018
Forecast type: TEMPORARY: The following changes expected for less than half the time period
Visibility: 0.25 miles (0.40 km)
Ceiling: 100 feet AGL
Clouds: broken clouds at 100 feet AGL
Weather: FG  (fog)
Text: PROB40
Forecast period: 1000 to 1200 UTC 12 December 2018
Forecast type: TEMPORARY: The following changes expected for less than half the time period
Visibility: 4 miles (6 km)
Ceiling: 1000 feet AGL
Clouds: broken clouds at 1000 feet AGL
Weather: SHRA  (rain showers)